Time;durP1;ratioP1;P1;durP2;ratioP2;P2;SDS_P1;SDS_P2;PMS_P1;PMS_P2;Temp;Humidity;BMP_temperature;BMP_pressure;BME280_temperature;BME280_humidity;BME280_pressure;Samples;Min_cycle;Max_cycle;Signal;HPM_P1;HPM_P2
2024/01/14 00:02:15;;;;;;;43.53;30.83;;;;;;;-4.68;100.00;96250.72;5079774;28;20392;-71
2024/01/14 00:04:41;;;;;;;47.45;31.05;;;;;;;-4.72;100.00;96244.81;5090825;28;20496;-71
2024/01/14 00:07:06;;;;;;;46.67;30.27;;;;;;;-4.78;100.00;96235.50;5077784;28;20020;-70
2024/01/14 00:09:31;;;;;;;44.15;30.45;;;;;;;-4.76;100.00;96240.59;5087382;28;20032;-70
2024/01/14 00:11:57;;;;;;;49.15;32.22;;;;;;;-4.73;100.00;96229.41;5081296;28;20465;-71
2024/01/14 00:14:22;;;;;;;51.15;33.28;;;;;;;-4.73;100.00;96230.28;5090108;28;20024;-71
2024/01/14 00:16:48;;;;;;;54.03;32.92;;;;;;;-4.77;100.00;96232.06;5094265;28;20076;-70
2024/01/14 00:19:13;;;;;;;52.63;31.25;;;;;;;-4.78;100.00;96234.66;5091597;28;20168;-71
2024/01/14 00:21:38;;;;;;;46.10;30.60;;;;;;;-4.77;100.00;96233.78;5084242;28;20062;-70
2024/01/14 00:24:04;;;;;;;45.03;30.67;;;;;;;-4.77;100.00;96228.63;5095653;28;20120;-71
2024/01/14 00:26:30;;;;;;;45.25;30.35;;;;;;;-4.76;100.00;96226.03;5088711;28;20024;-71
2024/01/14 00:28:57;;;;;;;49.15;30.50;;;;;;;-4.84;100.00;96221.97;5095279;28;20061;-70
2024/01/14 00:31:23;;;;;;;41.83;28.75;;;;;;;-4.83;100.00;96215.94;5076598;28;20485;-71
2024/01/14 00:33:49;;;;;;;42.75;27.63;;;;;;;-4.84;100.00;96206.53;5082080;28;20108;-70
2024/01/14 00:36:15;;;;;;;40.88;28.65;;;;;;;-4.82;100.00;96207.34;5102182;28;20492;-70
2024/01/14 00:38:41;;;;;;;37.92;28.60;;;;;;;-4.82;100.00;96199.66;5098443;28;20024;-71
2024/01/14 00:41:07;;;;;;;38.75;24.98;;;;;;;-4.95;100.00;96199.94;5108077;28;20016;-71
2024/01/14 00:43:32;;;;;;;39.42;23.35;;;;;;;-4.99;100.00;96202.59;5095919;28;20511;-71
2024/01/14 00:45:58;;;;;;;39.85;23.42;;;;;;;-4.98;100.00;96199.16;5096940;28;20042;-71
2024/01/14 00:48:23;;;;;;;33.63;20.63;;;;;;;-4.98;100.00;96196.59;5081384;28;20378;-71
2024/01/14 00:50:48;;;;;;;27.90;20.13;;;;;;;-4.95;100.00;96186.25;5087361;28;20436;-71
2024/01/14 00:53:14;;;;;;;27.60;19.90;;;;;;;-4.94;100.00;96180.22;5095859;28;20027;-71
2024/01/14 00:55:39;;;;;;;35.10;21.77;;;;;;;-4.94;100.00;96180.22;5095759;28;20032;-71
2024/01/14 00:58:05;;;;;;;33.38;20.70;;;;;;;-5.01;100.00;96176.94;5084764;28;20020;-71
2024/01/14 01:00:31;;;;;;;33.97;23.80;;;;;;;-5.00;100.00;96183.78;5095264;28;20032;-71
2024/01/14 01:02:56;;;;;;;37.30;24.48;;;;;;;-4.96;100.00;96180.28;5097733;28;20019;-70
2024/01/14 01:05:22;;;;;;;32.13;24.65;;;;;;;-4.86;100.00;96182.63;5083984;28;20028;-70
2024/01/14 01:07:47;;;;;;;27.70;21.60;;;;;;;-4.68;100.00;96177.06;5064677;28;20059;-70
2024/01/14 01:10:13;;;;;;;34.72;23.35;;;;;;;-4.76;100.00;96178.94;5087838;28;20032;-71
2024/01/14 01:12:39;;;;;;;31.65;22.27;;;;;;;-4.85;100.00;96176.59;5089667;28;20052;-70
2024/01/14 01:15:08;;;;;;;32.88;20.60;;;;;;;-4.86;100.00;96172.34;5084076;28;20101;-70
2024/01/14 01:17:34;;;;;;;40.85;23.38;;;;;;;-4.89;100.00;96168.97;5086667;28;20039;-71
2024/01/14 01:20:00;;;;;;;40.10;22.67;;;;;;;-4.87;100.00;96168.09;5082841;28;20058;-71
2024/01/14 01:22:26;;;;;;;24.15;17.60;;;;;;;-4.86;100.00;96162.94;5075488;28;20049;-71
2024/01/14 01:24:51;;;;;;;28.98;19.48;;;;;;;-4.83;100.00;96175.69;5075607;28;20040;-71
2024/01/14 01:27:17;;;;;;;27.92;19.20;;;;;;;-4.89;100.00;96171.53;5062448;28;20036;-71
2024/01/14 01:29:43;;;;;;;25.15;15.70;;;;;;;-4.95;100.00;96163.13;5065874;28;20107;-71
2024/01/14 01:32:09;;;;;;;24.67;15.82;;;;;;;-4.97;100.00;96163.19;5066623;28;20716;-71
2024/01/14 01:34:35;;;;;;;25.40;15.57;;;;;;;-4.96;100.00;96161.44;5063791;28;20039;-70
2024/01/14 01:37:00;;;;;;;21.35;15.85;;;;;;;-4.97;100.00;96165.75;5062796;28;20424;-71
2024/01/14 01:39:25;;;;;;;19.55;14.85;;;;;;;-4.96;100.00;96162.28;5064557;28;20075;-71
2024/01/14 01:41:51;;;;;;;19.42;14.15;;;;;;;-4.97;100.00;96162.31;5062693;28;20029;-70
2024/01/14 01:44:16;;;;;;;17.90;13.48;;;;;;;-4.95;100.00;96155.41;5062950;28;20559;-70
2024/01/14 01:46:42;;;;;;;19.55;13.90;;;;;;;-4.97;100.00;96164.88;5064965;28;20028;-70
2024/01/14 01:49:09;;;;;;;22.13;13.98;;;;;;;-5.04;100.00;96153.91;5065221;28;20123;-70
2024/01/14 01:51:36;;;;;;;20.98;14.07;;;;;;;-5.05;100.00;96160.78;5066080;28;20488;-70
2024/01/14 01:54:01;;;;;;;21.35;15.05;;;;;;;-5.01;100.00;96158.13;5065222;28;20078;-71
2024/01/14 01:56:27;;;;;;;22.90;16.67;;;;;;;-5.00;100.00;96155.50;5067753;28;20028;-70
2024/01/14 01:58:53;;;;;;;19.70;15.18;;;;;;;-5.00;100.00;96146.97;5063127;28;20048;-70
2024/01/14 02:01:21;;;;;;;23.35;15.30;;;;;;;-5.03;100.00;96150.47;5061355;28;20029;-71
2024/01/14 02:03:50;;;;;;;18.60;14.05;;;;;;;-5.02;100.00;96149.56;5063941;28;20108;-70
2024/01/14 02:06:16;;;;;;;24.50;15.93;;;;;;;-4.99;100.00;96146.09;5073330;28;20388;-71
2024/01/14 02:08:42;;;;;;;14.48;12.60;;;;;;;-5.05;100.00;96150.50;5064199;28;20028;-70
2024/01/14 02:11:08;;;;;;;18.08;13.20;;;;;;;-5.07;100.00;96147.13;5061663;28;20085;-70
2024/01/14 02:13:33;;;;;;;17.30;12.15;;;;;;;-5.06;100.00;96145.41;5070471;28;20077;-70
2024/01/14 02:15:59;;;;;;;16.50;12.40;;;;;;;-5.02;100.00;96149.56;5067814;28;20029;-70
2024/01/14 02:18:24;;;;;;;18.58;13.70;;;;;;;-4.99;100.00;96148.66;5069389;28;20032;-70
2024/01/14 02:20:50;;;;;;;17.77;12.70;;;;;;;-5.01;100.00;96146.13;5065963;28;20198;-70
2024/01/14 02:23:20;;;;;;;16.00;12.57;;;;;;;-5.02;100.00;96129.03;5070134;28;20382;-70
2024/01/14 02:25:46;;;;;;;17.60;14.13;;;;;;;-5.07;100.00;96125.72;5062790;28;20385;-71
2024/01/14 02:28:14;;;;;;;16.92;13.23;;;;;;;-5.10;100.00;96123.25;5061874;28;20024;-70
2024/01/14 02:30:40;;;;;;;15.25;13.07;;;;;;;-5.16;100.00;96120.81;5061903;28;20409;-70
2024/01/14 02:33:06;;;;;;;16.58;13.15;;;;;;;-5.22;100.00;96112.38;5060269;28;20050;-70
2024/01/14 02:35:31;;;;;;;18.15;13.07;;;;;;;-5.20;100.00;96105.47;5057703;28;20041;-70
2024/01/14 02:37:57;;;;;;;17.52;12.50;;;;;;;-5.20;100.00;96110.59;5066220;28;20428;-71
2024/01/14 02:40:22;;;;;;;15.77;12.43;;;;;;;-5.19;100.00;96117.44;5065807;28;20055;-70
2024/01/14 02:42:47;;;;;;;20.55;14.18;;;;;;;-5.12;100.00;96107.84;5067391;28;20029;-71
2024/01/14 02:45:13;;;;;;;18.40;14.13;;;;;;;-5.14;100.00;96111.38;5069657;28;20024;-70
2024/01/14 02:47:38;;;;;;;16.83;13.30;;;;;;;-5.16;100.00;96111.38;5063579;28;20028;-70
2024/01/14 02:50:04;;;;;;;16.55;12.93;;;;;;;-5.12;100.00;96107.03;5056637;28;20032;-70
2024/01/14 02:52:29;;;;;;;15.90;13.50;;;;;;;-5.15;100.00;96105.38;5067157;28;20477;-70
2024/01/14 02:54:55;;;;;;;15.57;12.27;;;;;;;-5.15;100.00;96107.94;5060785;28;20082;-70
2024/01/14 02:57:20;;;;;;;16.73;12.98;;;;;;;-5.18;100.00;96103.72;5071478;28;20743;-70
2024/01/14 02:59:46;;;;;;;18.27;12.15;;;;;;;-5.22;100.00;96091.00;5062646;28;20039;-70
2024/01/14 03:02:11;;;;;;;13.77;11.93;;;;;;;-5.22;100.00;96096.13;5065866;28;20033;-70
2024/01/14 03:04:37;;;;;;;15.70;12.25;;;;;;;-5.19;100.00;96083.22;5078394;28;20028;-70
2024/01/14 03:07:03;;;;;;;15.23;12.65;;;;;;;-5.24;100.00;96083.31;5065556;28;20024;-70
2024/01/14 03:09:28;;;;;;;17.63;12.77;;;;;;;-5.22;100.00;96080.72;5071137;28;20033;-70
2024/01/14 03:11:54;;;;;;;16.20;13.10;;;;;;;-5.25;100.00;96081.63;5076039;28;20023;-70
2024/01/14 03:14:19;;;;;;;19.42;12.95;;;;;;;-5.26;100.00;96084.25;5069123;28;20021;-70
2024/01/14 03:16:44;;;;;;;18.20;14.23;;;;;;;-5.27;100.00;96083.41;5068726;28;20059;-70
2024/01/14 03:19:10;;;;;;;24.85;14.88;;;;;;;-5.30;100.00;96091.16;5071539;28;20019;-70
2024/01/14 03:21:35;;;;;;;24.90;14.93;;;;;;;-5.30;100.00;96092.91;5082833;28;20127;-70
2024/01/14 03:24:00;;;;;;;25.23;15.10;;;;;;;-5.32;100.00;96087.81;5076893;28;20394;-70
2024/01/14 03:26:26;;;;;;;21.08;14.55;;;;;;;-5.31;100.00;96079.22;5077750;28;20035;-70
2024/01/14 03:28:51;;;;;;;26.70;14.88;;;;;;;-5.34;100.00;96069.84;5083763;28;20028;-70
2024/01/14 03:31:17;;;;;;;31.77;15.00;;;;;;;-5.32;100.00;96072.41;5091167;28;20110;-70
2024/01/14 03:33:43;;;;;;;26.48;15.07;;;;;;;-5.30;100.00;96067.25;5091138;28;20013;-70
2024/01/14 03:36:11;;;;;;;29.65;13.82;;;;;;;-5.36;100.00;96058.78;5085255;28;20016;-70
2024/01/14 03:38:37;;;;;;;33.58;14.80;;;;;;;-5.43;100.00;96048.69;5076337;28;20458;-70
2024/01/14 03:41:02;;;;;;;23.85;13.05;;;;;;;-5.48;100.00;96048.81;5093083;28;20142;-70
2024/01/14 03:43:28;;;;;;;26.60;14.18;;;;;;;-5.47;100.00;96055.63;5089789;28;20032;-70
2024/01/14 03:45:53;;;;;;;20.77;13.00;;;;;;;-5.43;100.00;96051.25;5085644;28;20028;-70
2024/01/14 03:48:18;;;;;;;19.83;11.55;;;;;;;-5.43;100.00;96048.69;5088769;28;20029;-70
2024/01/14 03:50:44;;;;;;;18.40;11.45;;;;;;;-5.41;100.00;96042.66;5092878;28;20044;-70
2024/01/14 03:53:09;;;;;;;17.20;10.95;;;;;;;-5.44;100.00;96040.16;5088872;28;20472;-70
2024/01/14 03:55:34;;;;;;;18.35;10.75;;;;;;;-5.46;100.00;96036.78;5096979;28;20049;-71
2024/01/14 03:58:00;;;;;;;24.67;14.40;;;;;;;-5.46;100.00;96027.34;5090648;28;20046;-70
2024/01/14 04:00:25;;;;;;;35.50;20.85;;;;;;;-5.45;100.00;96023.06;5091244;28;20052;-70
2024/01/14 04:02:52;;;;;;;36.60;21.33;;;;;;;-5.42;100.00;96012.75;5085652;28;20431;-70
2024/01/14 04:05:17;;;;;;;35.53;21.90;;;;;;;-5.36;100.00;96012.59;5083465;28;20961;-70
2024/01/14 04:07:43;;;;;;;37.45;20.80;;;;;;;-5.34;100.00;96007.44;5091523;28;20016;-70
2024/01/14 04:10:08;;;;;;;31.30;18.15;;;;;;;-5.39;100.00;96006.69;5094413;28;20027;-70
2024/01/14 04:12:34;;;;;;;28.58;18.70;;;;;;;-5.37;100.00;96012.63;5067763;28;20047;-70
2024/01/14 04:14:59;;;;;;;25.00;16.98;;;;;;;-5.33;100.00;96011.69;5092524;28;20055;-71
2024/01/14 04:17:24;;;;;;;25.83;15.60;;;;;;;-5.29;100.00;96018.41;5094408;28;20024;-71
2024/01/14 04:19:50;;;;;;;21.73;13.73;;;;;;;-5.30;100.00;96032.13;5091779;28;20081;-71
2024/01/14 04:22:15;;;;;;;20.10;14.95;;;;;;;-5.26;100.00;96030.34;5090488;28;20132;-71
2024/01/14 04:24:41;;;;;;;18.45;13.82;;;;;;;-5.23;100.00;96032.84;5091157;28;20059;-70
2024/01/14 04:27:07;;;;;;;19.83;13.43;;;;;;;-5.21;100.00;96034.47;5088791;28;20099;-71
2024/01/14 04:29:32;;;;;;;18.50;13.20;;;;;;;-5.12;100.00;96042.84;5086739;28;20112;-71
2024/01/14 04:31:58;;;;;;;23.95;13.63;;;;;;;-5.10;100.00;96041.06;5088044;28;20166;-70
2024/01/14 04:34:23;;;;;;;22.45;13.20;;;;;;;-5.11;100.00;96042.78;5090031;28;20021;-71
2024/01/14 04:36:49;;;;;;;17.45;13.10;;;;;;;-5.11;100.00;96036.81;5097360;28;20044;-71
2024/01/14 04:39:14;;;;;;;18.88;13.38;;;;;;;-5.13;100.00;96033.44;5087654;28;20031;-71
2024/01/14 04:41:40;;;;;;;18.00;12.70;;;;;;;-5.13;100.00;96039.41;5094309;28;20110;-71
2024/01/14 04:44:06;;;;;;;18.35;13.50;;;;;;;-5.10;100.00;96036.75;5063132;28;20032;-70
2024/01/14 04:46:32;;;;;;;20.00;14.27;;;;;;;-5.08;100.00;96054.72;5093030;28;20036;-70
2024/01/14 04:48:58;;;;;;;18.63;13.07;;;;;;;-5.10;100.00;96048.78;5088325;28;20020;-70
2024/01/14 04:51:23;;;;;;;19.85;12.90;;;;;;;-5.09;100.00;96055.59;5085904;28;20389;-71
2024/01/14 04:53:48;;;;;;;18.17;13.45;;;;;;;-5.06;100.00;96060.66;5094301;28;20020;-71
2024/01/14 04:56:14;;;;;;;19.88;13.23;;;;;;;-5.03;100.00;96046.03;5098640;28;20028;-70
2024/01/14 04:58:40;;;;;;;19.13;14.20;;;;;;;-5.04;100.00;96048.63;5089648;28;20035;-69
2024/01/14 05:01:05;;;;;;;20.52;13.63;;;;;;;-5.06;100.00;96051.25;5094041;28;20035;-71
2024/01/14 05:03:31;;;;;;;18.13;12.82;;;;;;;-5.06;100.00;96051.25;5092462;28;20020;-71
2024/01/14 05:05:57;;;;;;;16.52;12.95;;;;;;;-5.06;100.00;96047.81;5073758;28;20020;-70
2024/01/14 05:08:22;;;;;;;18.98;12.32;;;;;;;-5.06;100.00;96042.69;5090165;28;20020;-70
2024/01/14 05:10:48;;;;;;;21.13;12.77;;;;;;;-5.07;100.00;96038.44;5088008;28;20495;-70
2024/01/14 05:13:13;;;;;;;16.50;11.52;;;;;;;-5.10;100.00;96033.38;5085571;28;20021;-70
2024/01/14 05:15:39;;;;;;;13.48;10.00;;;;;;;-5.09;100.00;96009.38;5082201;28;20055;-70
2024/01/14 05:18:04;;;;;;;12.88;9.65;;;;;;;-5.09;100.00;95999.09;5076119;28;20121;-70
2024/01/14 05:20:30;;;;;;;13.00;9.70;;;;;;;-5.09;100.00;95994.78;5095101;28;20059;-70
2024/01/14 05:22:55;;;;;;;12.18;10.18;;;;;;;-5.08;100.00;95983.69;5090288;28;20440;-70
2024/01/14 05:25:21;;;;;;;14.38;10.85;;;;;;;-5.09;100.00;95965.72;5092912;28;20579;-70
2024/01/14 05:27:46;;;;;;;13.50;11.45;;;;;;;-5.05;100.00;95951.91;5087625;28;20055;-70
2024/01/14 05:30:13;;;;;;;14.70;11.35;;;;;;;-4.99;100.00;95931.19;5083555;28;20020;-70
2024/01/14 05:32:38;;;;;;;9.85;8.48;;;;;;;-4.97;100.00;95932.03;5093394;28;20024;-71
2024/01/14 05:35:04;;;;;;;12.98;9.13;;;;;;;-4.93;100.00;95928.50;5092886;28;20377;-71
2024/01/14 05:37:31;;;;;;;27.48;14.30;;;;;;;-4.86;100.00;95923.19;5096880;28;20027;-70
2024/01/14 05:39:56;;;;;;;23.88;15.98;;;;;;;-4.81;100.00;95931.59;5078889;28;20107;-70
2024/01/14 05:42:22;;;;;;;24.02;15.25;;;;;;;-4.79;100.00;95928.09;5087662;28;20063;-70
2024/01/14 05:44:47;;;;;;;28.25;16.88;;;;;;;-4.78;100.00;95931.50;5083998;28;20106;-70
2024/01/14 05:47:13;;;;;;;28.05;18.38;;;;;;;-4.75;100.00;95928.88;5086663;28;20099;-71
2024/01/14 05:49:38;;;;;;;32.28;19.60;;;;;;;-4.70;100.00;95928.72;5081720;28;20028;-71
2024/01/14 05:52:04;;;;;;;27.38;17.17;;;;;;;-4.65;100.00;95930.28;5089897;28;20554;-70
2024/01/14 05:54:29;;;;;;;25.48;15.75;;;;;;;-4.52;100.00;95927.38;5093208;28;20542;-70
2024/01/14 05:56:57;;;;;;;26.00;14.70;;;;;;;-4.44;100.00;95930.56;5087729;28;20032;-70
2024/01/14 05:59:22;;;;;;;37.35;20.27;;;;;;;-4.34;100.00;95931.97;5087874;28;20032;-70
2024/01/14 06:01:48;;;;;;;23.55;17.08;;;;;;;-4.25;100.00;95940.31;5085483;28;20095;-70
2024/01/14 06:04:13;;;;;;;15.82;13.68;;;;;;;-4.32;100.00;95955.88;5090123;28;20020;-70
2024/01/14 06:06:38;;;;;;;16.65;11.98;;;;;;;-4.42;100.00;95975.03;5087184;28;20611;-70
2024/01/14 06:09:04;;;;;;;17.35;12.55;;;;;;;-4.41;100.00;95988.75;5065932;28;20024;-70
2024/01/14 06:11:29;;;;;;;16.00;13.77;;;;;;;-4.45;100.00;95998.28;5092547;28;20016;-71
2024/01/14 06:13:55;;;;;;;19.85;13.57;;;;;;;-4.52;100.00;96009.63;5081905;28;20016;-70
2024/01/14 06:16:20;;;;;;;17.83;13.80;;;;;;;-4.55;100.00;96025.09;5086917;28;20088;-70
2024/01/14 06:18:45;;;;;;;17.45;13.32;;;;;;;-4.39;100.00;96026.38;5085874;28;20050;-70
2024/01/14 06:21:11;;;;;;;17.83;12.38;;;;;;;-4.42;100.00;96035.88;5095164;28;20067;-71
2024/01/14 06:23:36;;;;;;;14.15;11.88;;;;;;;-4.48;100.00;96048.03;5085854;28;20494;-70
2024/01/14 06:26:02;;;;;;;12.00;10.77;;;;;;;-4.48;100.00;96037.75;5089566;28;20055;-70
2024/01/14 06:28:27;;;;;;;13.15;10.95;;;;;;;-4.48;100.00;96039.50;5075885;28;20028;-70
2024/01/14 06:30:52;;;;;;;12.35;11.02;;;;;;;-4.54;100.00;96030.22;5084227;28;20031;-71
2024/01/14 06:33:18;;;;;;;13.80;11.50;;;;;;;-4.56;100.00;96014.00;5082758;28;20077;-71
2024/01/14 06:35:43;;;;;;;15.00;11.27;;;;;;;-4.53;100.00;96015.63;5080129;28;20055;-70
2024/01/14 06:38:08;;;;;;;11.65;10.38;;;;;;;-4.49;100.00;96010.34;5088458;28;20028;-70
2024/01/14 06:40:35;;;;;;;14.38;11.65;;;;;;;-4.45;100.00;96003.41;5085861;28;20162;-70
2024/01/14 06:43:00;;;;;;;11.18;9.52;;;;;;;-4.44;100.00;95999.97;5083551;28;20040;-70
2024/01/14 06:45:25;;;;;;;12.55;9.13;;;;;;;-4.44;100.00;95988.81;5077700;28;20396;-71
2024/01/14 06:47:51;;;;;;;18.92;14.10;;;;;;;-4.37;100.00;95983.47;5085243;28;20032;-70
2024/01/14 06:50:16;;;;;;;15.95;12.65;;;;;;;-4.31;100.00;95987.59;5081408;28;20027;-70
2024/01/14 06:52:42;;;;;;;17.15;10.40;;;;;;;-4.37;100.00;95972.34;5069350;28;20024;-70
2024/01/14 06:55:12;;;;;;;18.55;12.15;;;;;;;-4.40;100.00;95973.28;5089447;28;20016;-70
2024/01/14 06:57:38;;;;;;;19.13;13.63;;;;;;;-4.42;100.00;95984.47;5079506;28;20103;-70
2024/01/14 07:00:04;;;;;;;18.63;14.60;;;;;;;-4.48;100.00;95977.81;5085611;28;20019;-70
2024/01/14 07:02:30;;;;;;;16.05;12.90;;;;;;;-4.44;100.00;95973.41;5091472;28;20020;-71
2024/01/14 07:04:55;;;;;;;20.42;15.77;;;;;;;-4.47;100.00;95974.34;5089668;28;20038;-70
2024/01/14 07:07:21;;;;;;;22.73;16.95;;;;;;;-4.50;100.00;95970.13;5100441;28;20027;-70
2024/01/14 07:09:47;;;;;;;21.83;16.83;;;;;;;-4.57;100.00;95970.31;5090881;28;20099;-71
2024/01/14 07:12:12;;;;;;;20.48;16.35;;;;;;;-4.62;100.00;95973.06;5087655;28;20464;-71
2024/01/14 07:14:37;;;;;;;18.90;14.73;;;;;;;-4.66;100.00;95968.84;5084546;28;20024;-71
2024/01/14 07:17:03;;;;;;;16.33;12.32;;;;;;;-4.68;100.00;95963.78;5092021;28;20047;-71
2024/01/14 07:19:28;;;;;;;18.08;11.93;;;;;;;-4.67;100.00;95960.31;5092461;28;20028;-71
2024/01/14 07:21:54;;;;;;;16.58;12.10;;;;;;;-4.70;100.00;95965.53;5088180;28;20044;-71
2024/01/14 07:24:19;;;;;;;16.00;12.45;;;;;;;-4.68;100.00;95971.50;5088684;28;20436;-71
2024/01/14 07:26:45;;;;;;;15.05;11.80;;;;;;;-4.68;100.00;95978.34;5079562;28;20024;-71
2024/01/14 07:29:10;;;;;;;17.63;13.52;;;;;;;-4.63;100.00;95984.22;5091821;28;20644;-70
2024/01/14 07:31:36;;;;;;;18.98;14.30;;;;;;;-4.57;100.00;95975.47;5089499;28;20484;-71
2024/01/14 07:34:01;;;;;;;17.08;14.35;;;;;;;-4.55;100.00;95977.13;5083975;28;20042;-71
2024/01/14 07:36:26;;;;;;;18.42;16.42;;;;;;;-4.55;100.00;95979.69;5071670;28;20039;-70
2024/01/14 07:38:53;;;;;;;21.45;16.75;;;;;;;-4.51;100.00;95977.91;5082923;28;20034;-70
2024/01/14 07:41:19;;;;;;;30.27;24.13;;;;;;;-4.43;100.00;95970.78;5089225;28;20032;-71
2024/01/14 07:43:45;;;;;;;21.63;16.17;;;;;;;-4.15;100.00;95964.00;5085610;28;20046;-70
2024/01/14 07:46:11;;;;;;;19.55;15.40;;;;;;;-4.04;100.00;95961.94;5086723;28;20047;-71
2024/01/14 07:48:36;;;;;;;21.45;16.98;;;;;;;-3.92;100.00;95947.88;5091650;28;20538;-71
2024/01/14 07:51:02;;;;;;;22.25;15.45;;;;;;;-3.86;100.00;95945.13;5086883;28;20028;-71
2024/01/14 07:53:28;;;;;;;25.52;18.17;;;;;;;-3.91;100.00;95945.25;5086317;28;20509;-71
2024/01/14 07:55:53;;;;;;;18.75;16.75;;;;;;;-3.89;100.00;95940.91;5099046;28;20050;-71
2024/01/14 07:58:19;;;;;;;25.23;16.52;;;;;;;-3.93;100.00;95947.03;5098358;28;20473;-71
2024/01/14 08:00:45;;;;;;;20.17;18.02;;;;;;;-3.95;100.00;95940.25;5104816;28;20040;-71
2024/01/14 08:03:11;;;;;;;19.02;17.00;;;;;;;-3.99;100.00;95936.91;5105368;28;20027;-71
2024/01/14 08:05:40;;;;;;;21.10;14.02;;;;;;;-3.97;100.00;95931.75;5093779;28;20032;-71
2024/01/14 08:08:05;;;;;;;17.52;11.60;;;;;;;-3.98;100.00;95920.63;5101035;28;20046;-71
2024/01/14 08:10:32;;;;;;;24.45;17.33;;;;;;;-4.00;100.00;95912.09;5095707;28;20024;-71
2024/01/14 08:12:58;;;;;;;22.05;18.00;;;;;;;-4.02;100.00;95913.88;5090469;28;20020;-71
2024/01/14 08:15:23;;;;;;;19.15;17.17;;;;;;;-4.01;100.00;95912.97;5091173;28;20016;-71
2024/01/14 08:17:49;;;;;;;19.38;16.60;;;;;;;-3.97;100.00;95918.88;5093815;28;20094;-71
2024/01/14 08:20:14;;;;;;;19.88;16.55;;;;;;;-3.98;100.00;95917.19;5089257;28;20028;-69
2024/01/14 08:22:40;;;;;;;20.67;16.77;;;;;;;-3.94;100.00;95934.22;5093235;28;20016;-71
2024/01/14 08:25:07;;;;;;;22.83;20.42;;;;;;;-3.89;100.00;95938.34;5089722;28;20021;-71
2024/01/14 08:27:33;;;;;;;17.50;13.98;;;;;;;-3.51;100.00;95932.03;5093084;28;20048;-70
2024/01/14 08:29:59;;;;;;;37.40;26.48;;;;;;;-3.71;100.00;95937.78;5087130;28;20480;-71
2024/01/14 08:32:24;;;;;;;35.05;26.75;;;;;;;-3.72;100.00;95941.25;5088525;28;20093;-71
2024/01/14 08:34:50;;;;;;;37.45;27.45;;;;;;;-3.61;100.00;95936.63;5092818;28;20027;-71
2024/01/14 08:37:15;;;;;;;33.25;26.92;;;;;;;-3.47;100.00;95944.72;5092001;28;20031;-71
2024/01/14 08:39:40;;;;;;;31.15;26.90;;;;;;;-3.39;100.00;95949.63;5093312;28;20025;-71
2024/01/14 08:42:06;;;;;;;47.10;35.60;;;;;;;-3.32;100.00;95963.16;5095871;28;20024;-71
2024/01/14 08:44:32;;;;;;;45.13;35.67;;;;;;;-3.25;100.00;95962.03;5087247;28;20039;-70
2024/01/14 08:46:57;;;;;;;44.33;34.63;;;;;;;-3.22;100.00;95959.38;5108004;28;20059;-71
2024/01/14 08:49:24;;;;;;;41.25;31.05;;;;;;;-3.23;100.00;95957.69;5085302;28;20028;-70
2024/01/14 08:51:50;;;;;;;40.92;29.15;;;;;;;-3.23;100.00;95946.56;5087541;28;20029;-70
2024/01/14 08:54:15;;;;;;;33.33;26.60;;;;;;;-3.23;100.00;95942.22;5084983;28;20380;-70
2024/01/14 08:56:41;;;;;;;27.90;22.15;;;;;;;-3.21;100.00;95955.88;5086181;28;20673;-70
2024/01/14 08:59:06;;;;;;;25.85;22.35;;;;;;;-3.25;100.00;95946.59;5093105;28;20012;-69
2024/01/14 09:01:31;;;;;;;31.27;24.92;;;;;;;-3.28;100.00;95944.13;5077670;28;20040;-70
2024/01/14 09:03:57;;;;;;;24.75;22.05;;;;;;;-3.26;100.00;95937.19;5093154;28;20020;-70
2024/01/14 09:06:22;;;;;;;27.52;23.17;;;;;;;-3.24;100.00;95940.53;5096012;28;20024;-70
2024/01/14 09:08:48;;;;;;;33.33;25.65;;;;;;;-3.26;100.00;95932.03;5104230;28;20051;-70
2024/01/14 09:11:13;;;;;;;32.67;26.45;;;;;;;-3.28;100.00;95925.28;5093601;28;20104;-70
2024/01/14 09:13:38;;;;;;;28.40;23.00;;;;;;;-3.20;100.00;95918.13;5108195;28;20015;-70
2024/01/14 09:16:05;;;;;;;29.88;22.38;;;;;;;-3.09;100.00;95917.75;5091912;28;20073;-70
2024/01/14 09:18:31;;;;;;;24.05;21.55;;;;;;;-3.00;100.00;95916.59;5076757;28;20036;-70
2024/01/14 09:20:56;;;;;;;27.88;24.27;;;;;;;-2.96;100.00;95913.00;5079892;28;20142;-70
2024/01/14 09:23:22;;;;;;;29.02;25.17;;;;;;;-2.90;100.00;95915.34;5078946;28;20032;-70
2024/01/14 09:25:47;;;;;;;24.85;22.15;;;;;;;-2.90;100.00;95923.94;5082340;28;20032;-70
2024/01/14 09:28:12;;;;;;;29.90;22.10;;;;;;;-2.69;100.00;95926.66;5079303;28;20504;-70
2024/01/14 09:30:38;;;;;;;37.00;29.00;;;;;;;-2.54;100.00;95933.00;5083414;28;20093;-70
2024/01/14 09:33:04;;;;;;;56.33;40.58;;;;;;;-2.41;100.00;95940.28;5079718;28;20551;-70
2024/01/14 09:35:29;;;;;;;39.88;29.83;;;;;;;-2.20;100.00;95939.50;5092693;28;20093;-70
2024/01/14 09:37:55;;;;;;;34.85;29.95;;;;;;;-2.04;100.00;95951.78;5095525;28;20024;-70
2024/01/14 09:40:20;;;;;;;31.75;27.65;;;;;;;-1.64;100.00;95947.66;5088432;28;20056;-69
2024/01/14 09:42:50;;;;;;;34.88;28.38;;;;;;;-1.32;100.00;95947.25;5089534;28;20032;-69
2024/01/14 09:45:16;;;;;;;31.65;24.23;;;;;;;-1.01;100.00;95946.84;5095318;28;20020;-70
2024/01/14 09:47:42;;;;;;;26.55;22.42;;;;;;;-0.66;100.00;95950.56;5089770;28;20031;-70
2024/01/14 09:50:10;;;;;;;27.55;24.73;;;;;;;-0.36;100.00;95935.41;5095353;28;20020;-70
2024/01/14 09:52:39;;;;;;;18.13;16.17;;;;;;;-0.07;100.00;95938.44;5083688;28;20029;-71
2024/01/14 09:55:05;;;;;;;16.17;14.70;;;;;;;0.12;100.00;95937.59;5088464;28;20031;-70
2024/01/14 09:57:34;;;;;;;12.63;11.43;;;;;;;0.15;100.00;95927.09;5082026;28;20036;-70
2024/01/14 10:00:04;;;;;;;13.70;12.40;;;;;;;0.07;100.00;95914.50;5079552;28;20487;-71
2024/01/14 10:02:33;;;;;;;12.35;11.25;;;;;;;0.17;100.00;95903.69;5087056;28;20029;-71
2024/01/14 10:04:59;;;;;;;11.63;10.38;;;;;;;0.27;100.00;95912.72;5085483;28;20073;-70
2024/01/14 10:07:26;;;;;;;16.00;11.80;;;;;;;0.42;100.00;95901.59;5074868;28;20028;-70
2024/01/14 10:09:52;;;;;;;12.63;11.32;;;;;;;0.45;100.00;95904.97;5107414;28;20023;-70
2024/01/14 10:12:18;;;;;;;12.68;11.38;;;;;;;0.37;100.00;95895.00;5097694;28;20554;-70
2024/01/14 10:14:44;;;;;;;10.57;9.65;;;;;;;0.12;100.00;95898.75;5094885;28;20047;-70
2024/01/14 10:17:13;;;;;;;13.05;11.75;;;;;;;-0.05;100.00;95894.34;5093773;28;20024;-70
2024/01/14 10:19:39;;;;;;;10.38;9.32;;;;;;;-0.15;100.00;95893.94;5092039;28;20092;-70
2024/01/14 10:22:04;;;;;;;8.90;7.82;;;;;;;-0.28;100.00;95892.84;5095515;28;20653;-70
2024/01/14 10:24:32;;;;;;;7.60;6.80;;;;;;;-0.25;100.00;95903.06;5094117;28;20484;-71
2024/01/14 10:26:58;;;;;;;7.15;6.55;;;;;;;-0.24;100.00;95895.19;5095124;28;20577;-71
2024/01/14 10:29:24;;;;;;;13.73;9.63;;;;;;;0.07;100.00;95893.78;5081332;28;20090;-70
2024/01/14 10:31:49;;;;;;;18.45;11.75;;;;;;;-0.06;100.00;95890.94;5095477;28;20024;-71
2024/01/14 10:34:20;;;;;;;18.02;12.45;;;;;;;-0.15;100.00;95888.75;5094264;28;20027;-71
2024/01/14 10:36:46;;;;;;;15.02;11.45;;;;;;;-0.22;100.00;95875.28;5094824;28;20051;-71
2024/01/14 10:39:12;;;;;;;16.35;11.63;;;;;;;-0.21;100.00;95870.94;5092094;28;20031;-71
2024/01/14 10:41:39;;;;;;;16.25;11.40;;;;;;;-0.13;100.00;95866.22;5087692;28;20040;-72
2024/01/14 10:44:04;;;;;;;15.02;11.65;;;;;;;-0.19;100.00;95853.59;5082900;28;20072;-71
2024/01/14 10:46:32;;;;;;;12.85;10.85;;;;;;;-0.18;100.00;95847.50;5095144;28;20107;-71
2024/01/14 10:49:08;;;;;;;12.40;10.80;;;;;;;-0.21;100.00;95838.16;5081323;28;20027;-69
2024/01/14 10:51:40;;;;;;;17.80;10.80;;;;;;;-0.18;100.00;95826.81;5081788;28;20474;-70
2024/01/14 10:54:31;;;;;;;10.30;9.25;;;;;;;-0.12;100.00;95821.31;5087359;28;20020;-70
2024/01/14 10:57:34;;;;;;;12.10;9.95;;;;;;;0.12;100.00;95808.13;5085294;28;20082;-71
2024/01/14 11:00:09;;;;;;;12.73;10.25;;;;;;;0.19;100.00;95809.50;5076342;28;20055;-70
2024/01/14 11:02:36;;;;;;;24.45;14.95;;;;;;;0.30;100.00;95805.53;5076511;28;20033;-70
2024/01/14 11:05:03;;;;;;;23.98;17.02;;;;;;;0.17;100.00;95810.47;5087473;28;20067;-70